createdAt,value
2022-09-15T00:05:31.935Z,15.4
2022-09-15T00:11:24.159Z,15.4
2022-09-15T00:17:13.486Z,15.4
2022-09-15T00:23:04.986Z,15.4
2022-09-15T00:28:59.804Z,15.2
2022-09-15T00:34:54.792Z,15.3
2022-09-15T00:40:45.890Z,15.3
2022-09-15T00:46:37.850Z,15.2
2022-09-15T00:53:05.590Z,15.4
2022-09-15T00:58:57.291Z,15.4
2022-09-15T01:04:47.870Z,15.4
2022-09-15T01:10:47.473Z,15.5
2022-09-15T01:16:38.186Z,15.3
2022-09-15T01:22:32.546Z,15.4
2022-09-15T01:28:23.627Z,15.3
2022-09-15T01:34:16.722Z,15.4
2022-09-15T01:40:07.611Z,15.2
2022-09-15T01:45:58.558Z,15.1
2022-09-15T01:51:51.633Z,15.2
2022-09-15T01:57:44.318Z,15.3
2022-09-15T02:03:41.518Z,15.3
2022-09-15T02:09:41.971Z,15.1
2022-09-15T02:15:33.037Z,15.1
2022-09-15T02:21:28.523Z,15.1
2022-09-15T02:27:19.429Z,15
2022-09-15T02:33:09.981Z,15
2022-09-15T02:39:02.206Z,15
2022-09-15T02:44:57.140Z,15.1
2022-09-15T02:50:47.345Z,15
2022-09-15T02:56:40.961Z,15.2
2022-09-15T03:02:34.411Z,14.9
2022-09-15T03:08:27.638Z,15.1
2022-09-15T03:14:18.610Z,15
2022-09-15T03:20:10.509Z,15.2
2022-09-15T03:26:01.621Z,15.2
2022-09-15T03:32:01.927Z,15.2
2022-09-15T03:37:52.373Z,15.2
2022-09-15T03:43:41.917Z,15.3
2022-09-15T03:49:33.034Z,15
2022-09-15T03:55:27.053Z,15.2
2022-09-15T04:01:18.204Z,14.9
2022-09-15T04:07:12.401Z,14.9
2022-09-15T04:13:05.198Z,15
2022-09-15T04:18:55.401Z,14.8
2022-09-15T04:24:46.563Z,14.7
2022-09-15T04:30:39.234Z,14.7
2022-09-15T04:36:32.448Z,14.8
2022-09-15T04:42:22.880Z,14.5
2022-09-15T04:48:16.002Z,14.5
2022-09-15T04:54:06.797Z,14.4
2022-09-15T05:00:03.549Z,14.6
2022-09-15T05:05:55.906Z,14.2
2022-09-15T05:11:45.332Z,14.3
2022-09-15T05:17:35.685Z,14.2
2022-09-15T05:23:24.602Z,14.5
2022-09-15T05:49:18.826Z,14.7
2022-09-15T07:48:26.302Z,15.2
2022-09-15T08:29:52.842Z,15.8
2022-09-15T08:41:55.481Z,16.1
2022-09-15T08:47:47.663Z,15.8
2022-09-15T08:53:42.848Z,16.2
2022-09-15T08:59:38.205Z,16.4
2022-09-15T09:05:32.425Z,16.3
2022-09-15T09:11:27.357Z,16.2
2022-09-15T09:17:19.884Z,16.7
2022-09-15T09:23:19.593Z,16.6
2022-09-15T09:29:10.457Z,16.6
2022-09-15T09:35:03.840Z,16.9
2022-09-15T09:40:59.930Z,16.8
2022-09-15T09:46:51.713Z,16.7
2022-09-15T09:52:49.059Z,16.9
2022-09-15T09:58:42.209Z,16.9
2022-09-15T10:04:36.442Z,16.8
2022-09-15T10:10:31.134Z,16.8
2022-09-15T10:16:21.337Z,17
2022-09-15T10:22:12.736Z,17
2022-09-15T10:28:05.386Z,17.4
2022-09-15T10:33:57.675Z,17.5
2022-09-15T10:39:48.180Z,17.8
2022-09-15T10:45:42.894Z,17.7
2022-09-15T10:51:33.771Z,17.7
2022-09-15T10:57:29.529Z,17.8
2022-09-15T11:03:19.825Z,17.7
2022-09-15T11:09:14.065Z,17.9
2022-09-15T11:15:33.362Z,17.8
2022-09-15T11:21:26.140Z,17.8
2022-09-15T11:33:30.598Z,18.2
2022-09-15T11:39:24.654Z,17.8
2022-09-15T11:45:15.899Z,18.2
2022-09-15T11:51:20.593Z,18.4
2022-09-15T11:57:12.754Z,18.5
2022-09-15T12:03:05.280Z,18.3
2022-09-15T12:08:57.456Z,18.6
2022-09-15T12:14:51.359Z,18.2
2022-09-15T12:20:46.102Z,18.4
2022-09-15T12:26:40.529Z,18.6
2022-09-15T12:32:31.288Z,18.5
2022-09-15T12:38:22.737Z,18.6
2022-09-15T12:44:15.003Z,18.6
2022-09-15T12:50:04.977Z,18.9
2022-09-15T12:56:01.452Z,18.8
2022-09-15T13:01:50.563Z,18.8
2022-09-15T13:07:39.874Z,18.7
2022-09-15T13:13:32.846Z,18.5
2022-09-15T13:19:23.804Z,18.7
2022-09-15T13:25:13.995Z,18.6
2022-09-15T13:31:08.769Z,18.9
2022-09-15T13:50:16.241Z,19
2022-09-15T13:56:09.178Z,18.8
2022-09-15T14:02:02.150Z,19
2022-09-15T14:08:00.638Z,19
2022-09-15T14:13:51.214Z,18.9
2022-09-15T14:19:41.532Z,19
2022-09-15T14:25:33.487Z,19
2022-09-15T14:31:25.591Z,18.9
2022-09-15T14:37:17.325Z,18.8
2022-09-15T14:43:07.753Z,18.7
2022-09-15T14:49:02.351Z,18.8
2022-09-15T14:54:52.717Z,18.6
2022-09-15T15:00:43.166Z,18.6
2022-09-15T15:06:36.646Z,18.5
2022-09-15T15:12:28.265Z,18.3
2022-09-15T15:18:20.439Z,18
2022-09-15T15:49:01.505Z,16.9
2022-09-15T17:39:39.438Z,16.5
2022-09-15T18:22:38.503Z,16.4
2022-09-15T19:10:55.502Z,16.1
2022-09-15T19:42:25.451Z,16.1
2022-09-15T20:59:51.935Z,15.6
2022-09-15T21:05:43.644Z,15.5
2022-09-15T21:11:36.120Z,15.6
2022-09-15T21:17:33.336Z,15.4
2022-09-15T21:23:47.673Z,15.5
2022-09-15T21:29:47.948Z,15.4
2022-09-15T21:35:44.310Z,15.3
2022-09-15T21:41:40.379Z,15.2
2022-09-15T21:47:30.942Z,15.2
2022-09-15T21:53:24.935Z,15.3
2022-09-15T21:59:20.986Z,15.2
2022-09-15T22:05:17.569Z,15.1
2022-09-15T22:11:12.836Z,15.1
2022-09-15T22:17:03.025Z,15.1
2022-09-15T22:52:51.962Z,15.1
2022-09-15T22:58:42.289Z,15
2022-09-15T23:04:33.441Z,15
2022-09-15T23:10:24.254Z,14.9
2022-09-15T23:16:14.745Z,15.1
2022-09-15T23:22:05.058Z,14.8
2022-09-15T23:27:56.583Z,14.9
2022-09-15T23:33:46.622Z,14.8
2022-09-15T23:39:37.572Z,14.8
2022-09-15T23:45:28.330Z,14.9
2022-09-15T23:51:18.601Z,14.7
2022-09-15T23:57:09.260Z,14.8
